createdAt,value
2022-12-18T00:03:37.101Z,-4.80
2022-12-18T00:08:40.946Z,-4.79
2022-12-18T00:13:45.207Z,-4.80
2022-12-18T00:18:51.252Z,-4.80
2022-12-18T00:23:55.297Z,-4.80
2022-12-18T00:29:01.123Z,-4.79
2022-12-18T00:34:06.559Z,-4.76
2022-12-18T00:39:10.434Z,-4.80
2022-12-18T00:44:15.291Z,-4.77
2022-12-18T00:49:21.802Z,-4.73
2022-12-18T00:54:25.427Z,-4.77
2022-12-18T00:59:29.143Z,-4.71
2022-12-18T01:04:35.377Z,-4.79
2022-12-18T01:09:38.770Z,-4.72
2022-12-18T01:14:42.105Z,-4.73
2022-12-18T01:19:46.815Z,-4.73
2022-12-18T01:24:50.195Z,-4.74
2022-12-18T01:29:54.182Z,-4.76
2022-12-18T01:34:59.075Z,-4.75
2022-12-18T01:40:02.261Z,-4.76
2022-12-18T01:45:24.873Z,-4.79
2022-12-18T01:50:38.319Z,-4.77
2022-12-18T01:55:47.923Z,-4.77
2022-12-18T02:00:51.205Z,-4.77
2022-12-18T02:06:03.253Z,-4.79
2022-12-18T02:11:13.243Z,-4.77
2022-12-18T02:16:26.283Z,-4.75
2022-12-18T02:21:41.463Z,-4.89
2022-12-18T02:26:51.256Z,-4.72
2022-12-18T02:31:58.649Z,-4.71
2022-12-18T02:37:06.761Z,-4.69
2022-12-18T02:42:12.906Z,-4.67
2022-12-18T02:47:18.716Z,-4.65
2022-12-18T02:52:32.809Z,-4.63
2022-12-18T02:57:43.008Z,-4.63
2022-12-18T03:02:51.343Z,-4.78
2022-12-18T03:07:59.224Z,-4.65
2022-12-18T03:13:06.987Z,-4.65
2022-12-18T03:18:15.939Z,-4.65
2022-12-18T03:23:25.577Z,-4.67
2022-12-18T03:28:34.444Z,-4.70
2022-12-18T03:33:42.722Z,-4.69
2022-12-18T03:38:46.390Z,-4.69
2022-12-18T03:43:59.712Z,-4.70
2022-12-18T03:49:11.126Z,-4.74
2022-12-18T03:54:15.765Z,-4.75
2022-12-18T03:59:21.928Z,-4.77
2022-12-18T04:04:27.184Z,-4.78
2022-12-18T04:09:32.577Z,-4.79
2022-12-18T04:14:37.279Z,-4.79
2022-12-18T04:19:40.698Z,-4.80
2022-12-18T04:24:44.475Z,-4.79
2022-12-18T04:29:49.402Z,-4.81
2022-12-18T04:34:52.730Z,-4.83
2022-12-18T04:39:56.078Z,-4.86
2022-12-18T04:49:21.752Z,-4.89
2022-12-18T04:54:24.974Z,-4.90
2022-12-18T04:59:28.345Z,-4.88
2022-12-18T05:04:33.214Z,-4.89
2022-12-18T05:09:36.444Z,-4.89
2022-12-18T05:14:39.582Z,-4.91
2022-12-18T05:19:44.757Z,-4.91
2022-12-18T05:24:48.148Z,-4.90
2022-12-18T05:29:51.483Z,-4.92
2022-12-18T05:34:56.088Z,-4.93
2022-12-18T05:39:59.315Z,-4.94
2022-12-18T05:45:02.697Z,-4.98
2022-12-18T05:50:09.325Z,-4.96
2022-12-18T05:55:12.722Z,-4.97
2022-12-18T06:00:17.856Z,-4.98
2022-12-18T06:05:23.076Z,-5.00
2022-12-18T06:10:26.416Z,-4.96
2022-12-18T06:15:30.314Z,-4.94
2022-12-18T06:20:37.615Z,-4.92
2022-12-18T06:25:41.816Z,-4.93
2022-12-18T06:30:45.950Z,-4.83
2022-12-18T06:35:50.757Z,-4.76
2022-12-18T06:40:54.040Z,-4.83
2022-12-18T06:46:02.256Z,-4.67
2022-12-18T06:51:07.377Z,-4.64
2022-12-18T06:56:11.271Z,-4.56
2022-12-18T07:01:15.734Z,-4.57
2022-12-18T07:06:22.054Z,-4.69
2022-12-18T07:11:25.676Z,-4.53
2022-12-18T07:16:29.856Z,-4.51
2022-12-18T07:21:34.574Z,-4.48
2022-12-18T07:26:37.886Z,-4.48
2022-12-18T07:31:41.600Z,-4.50
2022-12-18T07:36:46.328Z,-4.44
2022-12-18T07:42:09.737Z,-4.33
2022-12-18T07:47:13.427Z,-4.23
2022-12-18T07:52:21.458Z,-4.17
2022-12-18T08:02:53.096Z,-4.14
2022-12-18T08:07:57.913Z,-4.17
2022-12-18T08:13:04.922Z,-4.19
2022-12-18T08:18:13.917Z,-4.19
2022-12-18T08:23:19.536Z,-4.09
2022-12-18T08:28:22.812Z,-4.06
2022-12-18T08:33:26.313Z,-4.03
2022-12-18T08:38:31.023Z,-4.07
2022-12-18T08:43:52.019Z,-4.11
2022-12-18T08:48:56.388Z,-4.15
2022-12-18T08:54:01.095Z,-4.15
2022-12-18T08:59:05.538Z,-4.10
2022-12-18T09:04:11.062Z,-4.07
2022-12-18T09:09:16.022Z,-4.08
2022-12-18T09:14:19.178Z,-4.11
2022-12-18T09:19:22.775Z,-4.15
2022-12-18T09:24:27.819Z,-4.09
2022-12-18T09:29:31.069Z,-4.09
2022-12-18T09:34:34.379Z,-3.99
2022-12-18T09:39:39.064Z,-3.93
2022-12-18T09:44:47.154Z,-3.86
2022-12-18T09:49:55.185Z,-3.78
2022-12-18T09:55:04.370Z,-3.76
2022-12-18T10:00:18.511Z,-3.83
2022-12-18T10:05:34.122Z,-3.88
2022-12-18T10:10:43.995Z,-3.84
2022-12-18T10:15:56.777Z,-3.83
2022-12-18T10:21:06.125Z,-3.75
2022-12-18T10:26:13.202Z,-3.73
2022-12-18T10:31:19.379Z,-3.75
2022-12-18T10:36:23.181Z,-3.78
2022-12-18T10:41:29.652Z,-3.87
2022-12-18T10:46:33.113Z,-3.85
2022-12-18T10:51:39.137Z,-3.83
2022-12-18T10:56:44.721Z,-3.90
2022-12-18T11:01:52.887Z,-3.83
2022-12-18T11:06:59.608Z,-3.78
2022-12-18T11:12:07.268Z,-3.81
2022-12-18T11:17:26.112Z,-3.86
2022-12-18T11:22:31.730Z,-3.82
2022-12-18T11:27:36.437Z,-3.82
2022-12-18T11:32:43.120Z,-3.81
2022-12-18T11:37:51.047Z,-3.81
2022-12-18T11:43:00.531Z,-3.86
2022-12-18T11:48:08.284Z,-3.81
2022-12-18T11:53:14.273Z,-3.77
2022-12-18T11:58:39.960Z,-3.83
2022-12-18T12:04:01.181Z,-3.89
2022-12-18T12:09:14.943Z,-3.91
2022-12-18T12:14:36.658Z,-4.01
2022-12-18T12:19:50.746Z,-4.05
2022-12-18T12:25:12.231Z,-4.06
2022-12-18T12:30:23.359Z,-4.07
2022-12-18T12:35:38.899Z,-4.12
2022-12-18T12:40:53.837Z,-4.14
2022-12-18T12:46:07.812Z,-4.11
2022-12-18T12:51:16.861Z,-4.13
2022-12-18T12:56:22.377Z,-4.11
2022-12-18T13:01:37.216Z,-4.17
2022-12-18T13:06:48.348Z,-4.23
2022-12-18T13:12:18.862Z,-4.14
2022-12-18T13:17:33.294Z,-4.16
2022-12-18T13:22:39.250Z,-4.15
2022-12-18T13:28:02.229Z,-4.17
2022-12-18T13:34:02.212Z,-4.18
2022-12-18T13:39:35.976Z,-4.22
2022-12-18T13:44:42.463Z,-4.21
2022-12-18T13:49:48.986Z,-4.20
2022-12-18T13:54:55.762Z,-4.17
2022-12-18T14:00:14.580Z,-4.19
2022-12-18T14:05:25.823Z,-4.32
2022-12-18T14:10:48.208Z,-4.15
2022-12-18T14:15:53.544Z,-4.18
2022-12-18T14:21:01.777Z,-4.13
2022-12-18T14:26:22.124Z,-4.08
2022-12-18T14:31:28.058Z,-4.08
2022-12-18T14:36:32.764Z,-4.06
2022-12-18T14:41:36.506Z,-4.04
2022-12-18T14:46:42.013Z,-4.04
2022-12-18T14:51:52.490Z,-4.20
2022-12-18T14:57:30.085Z,-4.07
2022-12-18T15:02:38.827Z,-4.03
2022-12-18T15:07:48.543Z,-4.02
2022-12-18T15:13:12.636Z,-4.01
2022-12-18T15:18:22.250Z,-4.02
2022-12-18T15:23:30.091Z,-3.98
2022-12-18T15:28:36.983Z,-3.96
2022-12-18T15:33:43.900Z,-4.04
2022-12-18T15:38:51.021Z,-3.98
2022-12-18T15:43:55.109Z,-4.01
2022-12-18T15:49:02.196Z,-4.07
2022-12-18T15:54:12.296Z,-4.22
2022-12-18T15:59:17.594Z,-4.12
2022-12-18T16:04:22.700Z,-4.12
2022-12-18T16:09:27.293Z,-4.16
2022-12-18T16:14:32.210Z,-4.34
2022-12-18T16:19:35.500Z,-4.24
2022-12-18T16:24:40.314Z,-4.29
2022-12-18T16:29:43.797Z,-4.39
2022-12-18T16:34:47.994Z,-4.44
2022-12-18T16:39:52.630Z,-4.44
2022-12-18T16:44:55.879Z,-4.52
2022-12-18T16:49:59.180Z,-4.61
2022-12-18T16:55:03.812Z,-4.66
2022-12-18T17:00:08.474Z,-4.72
2022-12-18T17:05:11.761Z,-4.82
2022-12-18T17:10:16.568Z,-4.87
2022-12-18T17:15:19.833Z,-4.90
2022-12-18T17:20:23.574Z,-4.94
2022-12-18T17:25:28.164Z,-4.97
2022-12-18T17:30:31.525Z,-5.02
2022-12-18T17:35:34.992Z,-5.07
2022-12-18T17:40:46.124Z,-5.10
2022-12-18T17:45:49.807Z,-5.11
2022-12-18T17:50:53.262Z,-5.15
2022-12-18T17:55:59.634Z,-5.26
2022-12-18T18:01:02.832Z,-5.42
2022-12-18T18:06:06.808Z,-5.53
2022-12-18T18:11:32.184Z,-5.78
2022-12-18T18:16:38.525Z,-5.74
2022-12-18T18:21:43.659Z,-5.97
2022-12-18T18:26:51.159Z,-6.15
2022-12-18T18:31:54.890Z,-6.15
2022-12-18T18:36:58.358Z,-6.33
2022-12-18T18:42:03.251Z,-6.50
2022-12-18T18:47:09.427Z,-6.61
2022-12-18T18:52:13.233Z,-6.69
2022-12-18T18:57:20.751Z,-6.73
2022-12-18T19:02:24.701Z,-6.82
2022-12-18T19:07:30.347Z,-6.90
2022-12-18T19:12:53.854Z,-6.94
2022-12-18T19:17:57.215Z,-7.03
2022-12-18T19:23:00.885Z,-7.10
2022-12-18T19:28:06.278Z,-7.21
2022-12-18T19:33:34.369Z,-7.31
2022-12-18T19:38:35.170Z,-7.41
2022-12-18T19:43:40.124Z,-7.51
2022-12-18T19:48:44.609Z,-7.67
2022-12-18T19:53:50.543Z,-7.83
2022-12-18T19:58:58.721Z,-7.99
2022-12-18T20:04:02.107Z,-8.18
2022-12-18T20:09:08.017Z,-8.34
2022-12-18T20:14:14.125Z,-8.49
2022-12-18T20:19:20.198Z,-8.62
2022-12-18T20:24:23.868Z,-8.73
2022-12-18T20:29:28.858Z,-8.85
2022-12-18T20:34:32.196Z,-9.01
2022-12-18T20:39:36.348Z,-9.05
2022-12-18T20:44:41.715Z,-9.13
2022-12-18T20:49:45.346Z,-9.22
2022-12-18T20:54:49.486Z,-9.33
2022-12-18T20:59:54.097Z,-9.43
2022-12-18T21:04:57.270Z,-9.50
2022-12-18T21:10:00.494Z,-9.58
2022-12-18T21:15:07.844Z,-9.68
2022-12-18T21:20:17.432Z,-9.77
2022-12-18T21:25:22.452Z,-9.84
2022-12-18T21:30:27.282Z,-9.95
2022-12-18T21:35:32.058Z,-9.97
2022-12-18T21:40:35.539Z,-10.03
2022-12-18T21:45:41.275Z,-10.10
2022-12-18T21:50:44.700Z,-10.12
2022-12-18T21:55:47.913Z,-10.21
2022-12-18T22:00:52.697Z,-10.31
2022-12-18T22:06:08.987Z,-10.33
2022-12-18T22:11:14.355Z,-10.42
2022-12-18T22:16:20.829Z,-10.45
2022-12-18T22:21:29.526Z,-10.47
2022-12-18T22:26:39.831Z,-10.56
2022-12-18T22:31:45.017Z,-10.61
2022-12-18T22:36:49.878Z,-10.69
2022-12-18T22:41:54.324Z,-10.68
2022-12-18T22:47:05.619Z,-10.73
2022-12-18T22:52:11.027Z,-10.74
2022-12-18T22:57:14.384Z,-10.76
2022-12-18T23:02:19.818Z,-10.82
2022-12-18T23:07:23.388Z,-10.86
2022-12-18T23:12:26.633Z,-10.91
2022-12-18T23:17:31.639Z,-10.91
2022-12-18T23:22:34.918Z,-10.95
2022-12-18T23:27:38.266Z,-10.97
2022-12-18T23:32:43.004Z,-11.02
2022-12-18T23:38:04.428Z,-11.04
2022-12-18T23:43:07.617Z,-11.07
2022-12-18T23:48:12.335Z,-11.03
2022-12-18T23:53:15.834Z,-10.97
2022-12-18T23:58:20.762Z,-11.06
